Time;durP1;ratioP1;P1;durP2;ratioP2;P2;SDS_P1;SDS_P2;PMS_P1;PMS_P2;Temp;Humidity;BMP_temperature;BMP_pressure;BME280_temperature;BME280_humidity;BME280_pressure;Samples;Min_cycle;Max_cycle;Signal;HPM_P1;HPM_P2
2022/01/19 00:00:11;;;;;;;62.73;34.57;;;4.20;99.90;;;;;;5035648;28;20178;-68
2022/01/19 00:02:37;;;;;;;63.93;33.90;;;4.10;99.90;;;;;;5035401;28;20189;-68
2022/01/19 00:05:04;;;;;;;67.17;33.97;;;4.20;99.90;;;;;;5035136;28;20681;-68
2022/01/19 00:07:30;;;;;;;57.97;34.00;;;4.30;99.90;;;;;;5034905;28;20177;-67
2022/01/19 00:09:56;;;;;;;67.77;37.00;;;4.40;99.90;;;;;;5035258;28;20634;-68
2022/01/19 00:12:22;;;;;;;70.10;35.07;;;4.40;99.90;;;;;;5035207;28;20208;-68
2022/01/19 00:14:48;;;;;;;71.43;35.90;;;4.50;99.90;;;;;;5035143;28;20202;-69
2022/01/19 00:17:13;;;;;;;72.77;35.57;;;4.50;99.90;;;;;;5035342;28;20696;-67
2022/01/19 00:19:39;;;;;;;73.40;35.20;;;4.60;99.90;;;;;;5035154;28;20178;-68
2022/01/19 00:22:04;;;;;;;77.87;36.83;;;4.60;99.90;;;;;;5035323;28;20170;-68
2022/01/19 00:24:30;;;;;;;74.77;35.13;;;4.60;99.90;;;;;;5033615;28;20304;-69
2022/01/19 00:26:56;;;;;;;67.03;32.97;;;4.50;99.90;;;;;;5034607;28;20229;-69
2022/01/19 00:29:21;;;;;;;61.30;31.47;;;4.40;99.90;;;;;;5035262;28;20376;-68
2022/01/19 00:31:47;;;;;;;57.33;30.60;;;4.10;99.90;;;;;;5035006;28;20169;-69
2022/01/19 00:34:12;;;;;;;60.50;31.17;;;3.90;99.90;;;;;;5034678;28;20178;-68
2022/01/19 00:36:38;;;;;;;58.73;29.73;;;3.80;99.90;;;;;;5034404;28;20170;-67
2022/01/19 00:39:04;;;;;;;67.27;30.37;;;3.80;99.90;;;;;;5034852;28;20695;-69
2022/01/19 00:41:29;;;;;;;57.63;31.07;;;3.70;99.90;;;;;;5033635;28;20174;-68
2022/01/19 00:43:55;;;;;;;58.30;30.90;;;3.60;99.90;;;;;;5034654;28;20660;-68
2022/01/19 00:46:20;;;;;;;58.87;29.80;;;3.50;99.90;;;;;;5034503;28;20255;-69
2022/01/19 00:48:46;;;;;;;59.53;31.00;;;3.50;99.90;;;;;;5034638;28;20174;-68
2022/01/19 00:51:11;;;;;;;58.60;32.00;;;3.50;99.90;;;;;;5034148;28;20340;-68
2022/01/19 00:53:37;;;;;;;59.40;31.20;;;3.50;99.90;;;;;;5034627;28;20178;-68
2022/01/19 00:56:03;;;;;;;58.70;29.53;;;3.50;99.90;;;;;;5034294;28;20633;-68
2022/01/19 00:58:28;;;;;;;57.20;30.47;;;3.60;99.90;;;;;;5034415;28;20181;-68
2022/01/19 01:00:57;;;;;;;53.53;29.07;;;3.50;99.90;;;;;;5034465;28;20275;-68
2022/01/19 01:03:23;;;;;;;65.07;29.20;;;3.40;99.90;;;;;;5034109;28;20645;-69
2022/01/19 01:05:48;;;;;;;57.43;31.17;;;3.40;99.90;;;;;;5033585;28;20297;-68
2022/01/19 01:08:14;;;;;;;56.57;30.07;;;3.30;99.90;;;;;;5034252;28;20166;-69
2022/01/19 01:10:43;;;;;;;55.67;29.97;;;3.30;99.90;;;;;;5034174;28;20219;-68
2022/01/19 01:13:30;;;;;;;67.63;35.33;;;3.30;99.90;;;;;;5034220;28;20174;-68
2022/01/19 01:16:05;;;;;;;66.87;34.13;;;3.20;99.90;;;;;;5033948;28;20629;-68
2022/01/19 01:18:33;;;;;;;86.33;48.27;;;3.10;99.90;;;;;;5033988;28;20744;-68
2022/01/19 01:21:00;;;;;;;98.97;56.80;;;3.10;99.90;;;;;;5033751;28;20169;-69
2022/01/19 01:23:29;;;;;;;116.70;70.07;;;3.10;99.90;;;;;;5034073;28;20242;-68
2022/01/19 01:25:56;;;;;;;110.70;66.93;;;3.10;99.90;;;;;;5032137;28;20264;-67
2022/01/19 01:28:21;;;;;;;122.37;71.37;;;3.10;99.90;;;;;;5034073;28;20165;-68
2022/01/19 01:30:48;;;;;;;113.77;70.90;;;3.10;99.90;;;;;;5034023;28;20574;-68
2022/01/19 01:33:13;;;;;;;120.37;68.33;;;3.10;99.90;;;;;;5033612;28;20648;-68
2022/01/19 01:35:40;;;;;;;107.33;58.70;;;3.10;99.90;;;;;;5033125;28;20170;-68
2022/01/19 01:38:07;;;;;;;110.57;62.40;;;3.20;99.90;;;;;;5033526;28;20544;-68
2022/01/19 01:40:34;;;;;;;117.27;64.77;;;3.20;99.90;;;;;;5033488;28;20158;-68
2022/01/19 01:43:02;;;;;;;130.20;74.13;;;3.20;99.90;;;;;;5033707;28;20162;-67
2022/01/19 01:45:32;;;;;;;134.80;80.17;;;3.20;99.90;;;;;;5033403;28;20212;-67
2022/01/19 01:48:16;;;;;;;151.53;85.70;;;3.20;99.90;;;;;;5033148;28;20166;-68
2022/01/19 01:53:29;;;;;;;148.07;85.23;;;3.30;99.90;;;;;;5033789;28;20237;-68
2022/01/19 01:56:02;;;;;;;158.40;96.97;;;3.40;99.90;;;;;;5033234;28;20188;-68
2022/01/19 01:58:32;;;;;;;142.60;79.50;;;3.40;99.90;;;;;;5033382;28;20186;-69
2022/01/19 02:00:58;;;;;;;103.80;55.17;;;3.50;99.90;;;;;;5033372;28;20178;-68
2022/01/19 02:03:24;;;;;;;111.23;63.57;;;3.60;99.90;;;;;;5032873;28;20181;-68
2022/01/19 02:06:19;;;;;;;122.43;72.90;;;3.60;99.90;;;;;;5031879;28;20235;-68
2022/01/19 02:24:04;;;;;;;120.23;72.80;;;3.60;99.90;;;;;;5032915;28;20189;-67
2022/01/19 02:40:30;;;;;;;80.90;40.07;;;3.60;99.90;;;;;;5031217;28;20181;-68
2022/01/19 02:50:55;;;;;;;73.07;38.20;;;3.80;99.90;;;;;;5032184;28;20235;-68
2022/01/19 02:53:20;;;;;;;76.57;38.83;;;3.70;99.90;;;;;;5034822;28;20224;-68
2022/01/19 02:55:46;;;;;;;70.63;33.70;;;3.80;99.90;;;;;;5034510;28;20254;-68
2022/01/19 02:58:14;;;;;;;68.23;31.07;;;3.80;99.90;;;;;;5034723;28;20174;-68
2022/01/19 03:08:54;;;;;;;60.77;30.20;;;4.30;99.90;;;;;;5037027;28;20178;-67
2022/01/19 03:11:20;;;;;;;54.13;26.50;;;4.30;99.90;;;;;;5036389;28;20182;-67
2022/01/19 03:13:47;;;;;;;50.20;26.57;;;4.40;99.90;;;;;;5036497;28;20177;-68
2022/01/19 03:16:13;;;;;;;49.80;26.37;;;4.60;99.90;;;;;;5035836;28;20174;-68
2022/01/19 03:18:39;;;;;;;54.43;25.67;;;4.60;99.90;;;;;;5036342;28;20518;-67
2022/01/19 03:21:06;;;;;;;48.00;25.20;;;4.70;99.90;;;;;;5036288;28;20185;-69
2022/01/19 03:23:32;;;;;;;46.23;24.10;;;4.80;99.90;;;;;;5036212;28;20193;-68
2022/01/19 03:25:58;;;;;;;43.33;23.33;;;4.80;99.90;;;;;;5035997;28;20241;-67
2022/01/19 03:28:24;;;;;;;42.13;21.37;;;4.80;99.90;;;;;;5036295;28;20170;-68
2022/01/19 03:30:50;;;;;;;40.20;22.73;;;4.90;99.90;;;;;;5035846;28;20205;-69
2022/01/19 03:33:16;;;;;;;38.60;21.63;;;4.90;99.90;;;;;;5035896;28;20173;-67
2022/01/19 03:35:43;;;;;;;33.50;19.10;;;4.90;99.90;;;;;;5035983;28;20177;-67
2022/01/19 03:38:09;;;;;;;37.50;20.93;;;4.90;99.90;;;;;;5036402;28;20602;-68
2022/01/19 03:40:36;;;;;;;33.97;18.67;;;5.00;99.90;;;;;;5035785;28;20228;-67
2022/01/19 03:43:05;;;;;;;31.63;18.90;;;5.00;99.90;;;;;;5035806;28;20176;-68
2022/01/19 03:45:34;;;;;;;33.00;17.03;;;5.00;99.90;;;;;;5035181;28;20561;-67
2022/01/19 03:48:32;;;;;;;31.83;18.00;;;4.90;99.90;;;;;;5035740;28;20170;-67
2022/01/19 03:50:57;;;;;;;32.97;17.30;;;4.90;99.90;;;;;;5035702;28;20177;-68
2022/01/19 03:53:23;;;;;;;28.60;17.83;;;5.00;99.90;;;;;;5035474;28;20170;-68
2022/01/19 03:55:48;;;;;;;34.63;17.83;;;5.00;99.90;;;;;;5034327;28;20216;-68
2022/01/19 03:58:14;;;;;;;29.43;16.73;;;5.00;99.90;;;;;;5035609;28;20675;-68
2022/01/19 04:00:43;;;;;;;30.50;17.03;;;5.00;99.90;;;;;;5035160;28;20235;-67
2022/01/19 04:03:12;;;;;;;28.30;16.03;;;5.10;99.90;;;;;;5034827;28;20231;-68
2022/01/19 04:06:03;;;;;;;27.50;16.80;;;5.10;99.90;;;;;;5035218;28;20271;-67
2022/01/19 04:08:27;;;;;;;27.87;16.10;;;5.10;99.90;;;;;;5035530;28;20170;-68
2022/01/19 04:10:53;;;;;;;26.13;15.87;;;5.10;99.90;;;;;;5035147;28;20227;-68
2022/01/19 04:15:53;;;;;;;26.30;15.83;;;5.20;99.90;;;;;;5034616;28;20220;-68
2022/01/19 04:18:19;;;;;;;23.37;14.23;;;5.20;99.90;;;;;;5035240;28;20173;-68
2022/01/19 04:20:48;;;;;;;23.97;16.00;;;5.30;99.90;;;;;;5034951;28;20634;-67
2022/01/19 04:23:15;;;;;;;22.47;14.00;;;5.20;99.90;;;;;;5035030;28;20169;-68
2022/01/19 04:25:41;;;;;;;20.80;14.00;;;5.30;99.90;;;;;;5034540;28;20209;-68
2022/01/19 04:28:07;;;;;;;22.93;14.57;;;5.30;99.90;;;;;;5034645;28;20676;-68
2022/01/19 04:30:34;;;;;;;22.23;14.23;;;5.40;99.90;;;;;;5034798;28;20189;-68
2022/01/19 04:33:14;;;;;;;18.87;13.37;;;5.40;99.90;;;;;;5034897;28;20270;-67
2022/01/19 04:35:50;;;;;;;23.50;14.60;;;5.50;99.90;;;;;;5034729;28;20205;-68
2022/01/19 05:15:06;;;;;;;20.60;14.27;;;5.70;99.90;;;;;;5033216;28;20547;-67
2022/01/19 05:17:31;;;;;;;17.67;14.17;;;5.80;99.90;;;;;;5034052;28;20177;-68
2022/01/19 05:19:57;;;;;;;18.40;14.70;;;5.80;99.90;;;;;;5033884;28;20173;-67
2022/01/19 05:22:23;;;;;;;17.37;13.30;;;5.70;99.90;;;;;;5033692;28;20178;-67
2022/01/19 05:24:48;;;;;;;16.83;13.67;;;5.60;99.90;;;;;;5033186;28;20209;-67
2022/01/19 05:27:14;;;;;;;19.43;13.70;;;5.60;99.90;;;;;;5032825;28;20256;-67
2022/01/19 05:29:40;;;;;;;18.47;13.77;;;5.60;99.90;;;;;;5033214;28;20186;-67
2022/01/19 05:32:06;;;;;;;19.07;13.63;;;5.60;99.90;;;;;;5033024;28;20174;-68
2022/01/19 05:34:31;;;;;;;16.90;14.10;;;5.70;99.90;;;;;;5033298;28;20201;-67
2022/01/19 05:36:57;;;;;;;18.13;14.37;;;5.80;99.90;;;;;;5033292;28;20174;-67
2022/01/19 05:39:23;;;;;;;17.10;13.23;;;5.80;99.90;;;;;;5033198;28;20326;-67
2022/01/19 05:41:48;;;;;;;17.80;13.87;;;5.60;99.90;;;;;;5032728;28;20208;-68
2022/01/19 05:44:14;;;;;;;20.50;14.40;;;5.50;99.90;;;;;;5033094;28;20202;-67
2022/01/19 05:46:39;;;;;;;20.93;14.77;;;5.40;99.90;;;;;;5033230;28;20202;-68
2022/01/19 05:49:05;;;;;;;18.87;14.60;;;5.50;99.90;;;;;;5033472;28;20178;-67
2022/01/19 05:51:32;;;;;;;17.87;14.27;;;5.60;99.90;;;;;;5032662;28;20228;-67
2022/01/19 05:53:58;;;;;;;21.63;14.67;;;5.50;99.90;;;;;;5032399;28;20197;-68
2022/01/19 05:56:23;;;;;;;18.20;14.63;;;5.60;99.90;;;;;;5032412;28;20497;-68
2022/01/19 05:58:49;;;;;;;19.67;15.03;;;5.70;99.90;;;;;;5033176;28;20621;-68
2022/01/19 06:01:15;;;;;;;18.83;14.00;;;5.70;99.90;;;;;;5031852;28;20196;-68
2022/01/19 06:03:40;;;;;;;19.67;14.60;;;5.70;99.90;;;;;;5032771;28;20267;-68
2022/01/19 06:06:06;;;;;;;21.17;15.60;;;5.80;99.90;;;;;;5032367;28;20206;-68
2022/01/19 06:08:45;;;;;;;22.60;15.07;;;5.80;99.90;;;;;;5032778;28;20185;-69
2022/01/19 06:11:11;;;;;;;18.37;14.57;;;5.90;99.90;;;;;;5032055;28;20252;-68
2022/01/19 06:13:38;;;;;;;18.80;14.70;;;5.90;99.90;;;;;;5032835;28;20185;-67
2022/01/19 06:16:04;;;;;;;20.23;14.73;;;6.00;99.90;;;;;;5032098;28;20170;-67
2022/01/19 06:18:30;;;;;;;19.23;15.27;;;6.10;99.90;;;;;;5032989;28;20188;-67
2022/01/19 06:20:55;;;;;;;18.93;14.87;;;6.10;99.90;;;;;;5032228;28;20273;-68
2022/01/19 06:23:21;;;;;;;21.53;15.10;;;6.10;99.90;;;;;;5032229;28;20178;-68
2022/01/19 06:25:47;;;;;;;21.53;16.07;;;6.00;99.90;;;;;;5031119;28;20237;-68
2022/01/19 06:28:13;;;;;;;22.00;14.23;;;6.10;99.90;;;;;;5032329;28;20176;-68
2022/01/19 06:30:38;;;;;;;24.20;14.40;;;6.10;99.90;;;;;;5031487;28;20177;-67
2022/01/19 06:33:05;;;;;;;19.53;14.70;;;6.10;99.90;;;;;;5032059;28;20173;-68
2022/01/19 06:35:31;;;;;;;22.20;15.23;;;6.00;99.90;;;;;;5031711;28;20182;-67
2022/01/19 06:37:57;;;;;;;18.60;14.80;;;6.20;99.90;;;;;;5032161;28;20181;-67
2022/01/19 06:40:25;;;;;;;20.73;14.60;;;6.10;99.90;;;;;;5031817;28;20192;-67
2022/01/19 06:42:53;;;;;;;20.73;14.70;;;6.20;99.90;;;;;;5031790;28;20239;-67
2022/01/19 06:45:19;;;;;;;19.63;14.90;;;6.30;99.90;;;;;;5031568;28;20221;-68
2022/01/19 06:47:45;;;;;;;20.50;15.47;;;6.20;99.90;;;;;;5031496;28;20208;-68
2022/01/19 06:50:13;;;;;;;20.60;15.60;;;6.20;99.90;;;;;;5031483;28;20221;-68
2022/01/19 06:52:39;;;;;;;19.63;14.47;;;6.20;99.90;;;;;;5031456;28;20193;-68
2022/01/19 06:55:08;;;;;;;22.30;15.30;;;6.20;99.90;;;;;;5029284;28;20182;-67
2022/01/19 06:57:34;;;;;;;19.30;15.37;;;6.20;99.90;;;;;;5031785;28;20176;-68
2022/01/19 07:00:00;;;;;;;19.53;15.30;;;6.20;99.90;;;;;;5031761;28;20177;-69
2022/01/19 07:02:28;;;;;;;21.50;15.13;;;6.20;99.90;;;;;;5031673;28;20169;-69
2022/01/19 07:04:53;;;;;;;23.63;14.47;;;6.20;99.90;;;;;;5031594;28;20267;-68
2022/01/19 07:07:20;;;;;;;20.03;15.23;;;6.20;99.90;;;;;;5030348;28;20170;-68
2022/01/19 07:09:46;;;;;;;23.30;15.60;;;6.20;99.90;;;;;;5031032;28;20178;-68
2022/01/19 07:12:12;;;;;;;26.87;16.57;;;6.20;99.90;;;;;;5031521;28;20530;-66
2022/01/19 07:14:38;;;;;;;19.33;14.40;;;6.20;99.90;;;;;;5031202;28;20597;-67
2022/01/19 07:17:04;;;;;;;24.63;16.50;;;6.20;99.90;;;;;;5031329;28;20197;-68
2022/01/19 07:19:30;;;;;;;21.87;16.33;;;6.20;99.90;;;;;;5031562;28;20177;-68
2022/01/19 07:21:56;;;;;;;25.27;16.63;;;6.30;99.90;;;;;;5031928;28;20264;-68
2022/01/19 07:24:22;;;;;;;22.97;16.40;;;6.30;99.90;;;;;;5031224;28;20308;-67
2022/01/19 07:26:51;;;;;;;27.17;16.67;;;6.30;99.90;;;;;;5030675;28;20217;-67
2022/01/19 07:29:16;;;;;;;19.33;15.23;;;6.30;99.90;;;;;;5031146;28;20178;-67
2022/01/19 07:31:42;;;;;;;22.17;17.07;;;6.30;99.90;;;;;;5031196;28;20261;-68
2022/01/19 07:34:08;;;;;;;21.43;16.13;;;6.30;99.90;;;;;;5031150;28;20658;-68
2022/01/19 07:36:35;;;;;;;19.73;15.47;;;6.30;99.90;;;;;;5031326;28;20213;-68
2022/01/19 07:39:00;;;;;;;22.20;16.97;;;6.30;99.90;;;;;;5034668;28;20170;-67
2022/01/19 07:41:26;;;;;;;23.90;17.03;;;6.20;99.90;;;;;;5033801;28;20660;-68
2022/01/19 07:43:52;;;;;;;26.73;17.23;;;6.10;99.90;;;;;;5034957;28;20594;-68
2022/01/19 07:46:18;;;;;;;20.77;16.20;;;6.10;99.90;;;;;;5033993;28;20197;-68
2022/01/19 07:48:43;;;;;;;23.73;16.27;;;6.10;99.90;;;;;;5035104;28;20178;-68
2022/01/19 07:51:09;;;;;;;22.00;16.63;;;6.20;99.90;;;;;;5034402;28;20170;-69
2022/01/19 07:53:35;;;;;;;23.53;17.60;;;6.10;99.90;;;;;;5034429;28;20260;-67
2022/01/19 07:56:07;;;;;;;23.20;16.37;;;6.30;99.90;;;;;;5034279;28;20166;-68
2022/01/19 07:58:32;;;;;;;22.43;16.47;;;6.30;99.90;;;;;;5034467;28;20633;-68
2022/01/19 08:00:58;;;;;;;21.70;16.20;;;6.20;99.90;;;;;;5032943;28;20232;-68
2022/01/19 08:03:24;;;;;;;28.27;17.40;;;6.10;99.90;;;;;;5034582;28;20181;-68
2022/01/19 08:05:52;;;;;;;24.80;16.47;;;6.20;99.90;;;;;;5033992;28;20221;-68
2022/01/19 08:08:17;;;;;;;23.23;16.33;;;6.10;99.90;;;;;;5034102;28;20300;-68
2022/01/19 08:10:45;;;;;;;22.40;16.97;;;6.10;99.90;;;;;;5034308;28;20216;-68
2022/01/19 08:13:12;;;;;;;20.63;16.07;;;6.10;99.90;;;;;;5034460;28;20178;-68
2022/01/19 08:15:37;;;;;;;24.50;17.13;;;6.00;99.90;;;;;;5033886;28;20173;-67
2022/01/19 08:18:03;;;;;;;29.77;17.53;;;6.20;99.90;;;;;;5033806;28;20170;-67
2022/01/19 08:20:29;;;;;;;23.43;17.87;;;6.20;99.90;;;;;;5033897;28;20253;-68
2022/01/19 08:22:55;;;;;;;22.03;16.77;;;6.20;99.90;;;;;;5033956;28;20606;-67
2022/01/19 08:25:21;;;;;;;21.20;16.67;;;6.30;99.90;;;;;;5033966;28;20214;-67
2022/01/19 08:27:47;;;;;;;24.13;17.33;;;6.30;99.90;;;;;;5033854;28;20260;-68
2022/01/19 08:30:13;;;;;;;23.67;16.93;;;6.20;99.90;;;;;;5034335;28;20174;-68
2022/01/19 08:32:39;;;;;;;24.83;17.63;;;6.20;99.90;;;;;;5034028;28;20214;-69
2022/01/19 08:35:07;;;;;;;25.13;17.27;;;6.30;99.90;;;;;;5033350;28;20173;-69
2022/01/19 08:37:33;;;;;;;23.80;16.63;;;6.20;99.90;;;;;;5034282;28;20528;-68
2022/01/19 08:39:59;;;;;;;25.23;17.40;;;6.10;99.90;;;;;;5033898;28;20181;-68
2022/01/19 08:42:25;;;;;;;28.37;17.93;;;6.00;99.90;;;;;;5033511;28;20181;-68
2022/01/19 08:44:52;;;;;;;26.37;17.23;;;6.10;99.90;;;;;;5033714;28;20594;-68
2022/01/19 08:47:17;;;;;;;22.53;16.27;;;6.10;99.90;;;;;;5033610;28;20685;-70
2022/01/19 08:49:43;;;;;;;26.73;18.03;;;6.10;99.90;;;;;;5033594;28;20257;-69
2022/01/19 08:52:09;;;;;;;24.97;16.97;;;6.20;99.90;;;;;;5033737;28;20194;-69
2022/01/19 08:54:34;;;;;;;20.10;16.30;;;6.30;99.90;;;;;;5033242;28;20178;-68
2022/01/19 08:57:01;;;;;;;21.37;16.50;;;6.30;99.90;;;;;;5033518;28;20178;-67
2022/01/19 08:59:28;;;;;;;26.27;17.70;;;6.30;99.90;;;;;;5033624;28;20239;-70
2022/01/19 09:01:54;;;;;;;32.53;17.20;;;6.50;99.90;;;;;;5033850;28;20171;-69
2022/01/19 09:04:19;;;;;;;22.33;15.90;;;6.60;99.90;;;;;;5033119;28;20264;-68
2022/01/19 09:06:46;;;;;;;24.50;16.33;;;6.50;99.90;;;;;;5033654;28;20197;-67
2022/01/19 09:09:12;;;;;;;23.67;16.50;;;6.50;99.90;;;;;;5033771;28;20169;-68
2022/01/19 09:11:37;;;;;;;22.90;16.77;;;6.60;99.90;;;;;;5033275;28;20185;-68
2022/01/19 09:14:06;;;;;;;22.60;16.43;;;6.50;99.90;;;;;;5032824;28;20182;-69
2022/01/19 09:16:33;;;;;;;24.67;17.23;;;6.50;99.90;;;;;;5033364;28;20193;-68
2022/01/19 09:18:59;;;;;;;24.13;16.73;;;6.70;99.90;;;;;;5032799;28;20177;-68
2022/01/19 09:21:25;;;;;;;24.93;16.40;;;6.90;99.90;;;;;;5033281;28;20320;-69
2022/01/19 09:23:50;;;;;;;22.17;16.53;;;7.00;99.90;;;;;;5033590;28;20184;-69
2022/01/19 09:26:16;;;;;;;24.73;17.17;;;6.90;99.90;;;;;;5032539;28;20229;-69
2022/01/19 09:28:42;;;;;;;24.97;17.37;;;6.80;99.90;;;;;;5033533;28;20180;-68
2022/01/19 09:31:12;;;;;;;28.87;17.73;;;6.70;99.90;;;;;;5033095;28;20368;-69
2022/01/19 09:33:38;;;;;;;29.37;18.23;;;6.60;99.90;;;;;;5032628;28;20642;-69
2022/01/19 09:36:17;;;;;;;27.27;17.70;;;6.60;99.90;;;;;;5033338;28;20165;-67
2022/01/19 09:38:43;;;;;;;25.63;17.17;;;6.60;99.90;;;;;;5033037;28;20192;-70
2022/01/19 09:41:09;;;;;;;30.00;19.57;;;6.60;99.90;;;;;;5033185;28;20174;-69
2022/01/19 09:43:35;;;;;;;23.30;17.90;;;6.50;99.90;;;;;;5033041;28;20170;-69
2022/01/19 09:46:02;;;;;;;27.63;18.03;;;6.50;99.90;;;;;;5032246;28;20768;-68
2022/01/19 09:48:28;;;;;;;32.33;20.00;;;6.60;99.90;;;;;;5032130;28;20201;-69
2022/01/19 09:50:56;;;;;;;26.57;18.83;;;6.40;99.90;;;;;;5032706;28;20240;-69
2022/01/19 09:53:22;;;;;;;27.00;18.93;;;6.40;99.90;;;;;;5032254;28;20166;-68
2022/01/19 09:55:48;;;;;;;27.63;19.37;;;6.40;99.90;;;;;;5032517;28;20229;-69
2022/01/19 09:58:16;;;;;;;33.53;19.70;;;6.50;99.90;;;;;;5032947;28;20174;-68
2022/01/19 10:00:41;;;;;;;28.50;19.90;;;6.40;99.90;;;;;;5032585;28;20170;-68
2022/01/19 10:03:25;;;;;;;30.00;19.23;;;6.40;99.90;;;;;;5032132;28;20181;-68
2022/01/19 10:06:07;;;;;;;25.50;18.47;;;6.50;99.90;;;;;;5032403;28;20209;-68
2022/01/19 10:08:33;;;;;;;27.87;19.50;;;6.40;99.90;;;;;;5032393;28;20205;-68
2022/01/19 10:11:04;;;;;;;26.00;19.23;;;6.30;99.90;;;;;;5030776;28;20170;-71
2022/01/19 10:19:24;;;;;;;26.63;18.83;;;6.00;99.90;;;;;;5032854;28;20176;-69
2022/01/19 10:22:07;;;;;;;31.70;19.47;;;6.10;99.90;;;;;;5032117;28;20188;-69
2022/01/19 10:24:38;;;;;;;27.93;19.60;;;6.20;99.90;;;;;;5032069;28;20201;-70
2022/01/19 10:27:25;;;;;;;29.47;19.53;;;6.30;99.90;;;;;;5031833;28;20222;-69
2022/01/19 10:30:13;;;;;;;29.37;20.60;;;6.30;99.90;;;;;;5032440;28;20658;-69
2022/01/19 10:32:49;;;;;;;26.60;18.90;;;6.10;99.90;;;;;;5031155;28;20170;-68
2022/01/19 10:35:25;;;;;;;29.10;17.83;;;5.90;99.90;;;;;;5032208;28;20235;-69
2022/01/19 10:38:17;;;;;;;29.07;19.77;;;5.90;99.90;;;;;;5032265;28;20166;-69
2022/01/19 10:41:07;;;;;;;30.40;19.50;;;5.90;99.90;;;;;;5030779;28;20170;-68
2022/01/19 10:43:48;;;;;;;31.03;20.20;;;6.00;99.90;;;;;;5032135;28;20193;-69
2022/01/19 10:46:29;;;;;;;32.07;20.23;;;6.00;99.90;;;;;;5031208;28;20213;-68
2022/01/19 10:49:07;;;;;;;32.90;19.97;;;5.90;99.90;;;;;;5031977;28;20178;-68
2022/01/19 10:51:46;;;;;;;26.53;19.33;;;5.90;99.90;;;;;;5031760;28;20196;-68
2022/01/19 10:54:21;;;;;;;32.67;20.30;;;6.00;99.90;;;;;;5031978;28;20170;-69
2022/01/19 10:56:54;;;;;;;31.00;20.40;;;6.00;99.90;;;;;;5032146;28;20247;-70
2022/01/19 10:59:25;;;;;;;31.87;20.50;;;6.10;99.90;;;;;;5031960;28;20174;-70
2022/01/19 11:01:56;;;;;;;32.90;20.10;;;6.10;99.90;;;;;;5032050;28;20201;-69
2022/01/19 11:04:27;;;;;;;30.80;20.77;;;6.10;99.90;;;;;;5031791;28;20210;-70
2022/01/19 11:06:57;;;;;;;32.63;21.33;;;6.10;99.90;;;;;;5032276;28;20185;-69
2022/01/19 11:09:25;;;;;;;30.03;20.07;;;6.10;99.90;;;;;;5030682;28;20184;-70
2022/01/19 11:11:53;;;;;;;29.23;20.23;;;6.20;99.90;;;;;;5032356;28;20253;-69
2022/01/19 11:14:20;;;;;;;31.10;20.43;;;6.20;99.90;;;;;;5035209;28;20178;-69
2022/01/19 11:16:47;;;;;;;31.20;21.07;;;6.20;99.90;;;;;;5035954;28;20174;-69
2022/01/19 11:19:13;;;;;;;29.43;20.80;;;6.20;99.90;;;;;;5035474;28;20249;-68
2022/01/19 11:22:26;;;;;;;29.13;20.20;;;6.20;99.90;;;;;;5034334;28;20261;-69
2022/01/19 11:25:01;;;;;;;26.63;19.90;;;6.30;99.90;;;;;;5033219;28;20218;-70
2022/01/19 11:27:29;;;;;;;28.63;20.60;;;6.20;99.90;;;;;;5032321;28;20685;-69
2022/01/19 11:30:13;;;;;;;34.30;21.77;;;6.30;99.90;;;;;;5033148;28;20206;-69
2022/01/19 11:32:39;;;;;;;30.77;20.70;;;6.20;99.90;;;;;;5032689;28;20266;-69
2022/01/19 11:35:06;;;;;;;29.00;20.93;;;6.30;99.90;;;;;;5032992;28;20193;-69
2022/01/19 11:37:32;;;;;;;29.73;20.97;;;6.30;99.90;;;;;;5032923;28;20174;-68
2022/01/19 11:40:14;;;;;;;30.77;21.03;;;6.30;99.90;;;;;;5033044;28;20272;-68
2022/01/19 11:42:40;;;;;;;28.47;19.80;;;6.30;99.90;;;;;;5032366;28;20169;-70
2022/01/19 11:45:09;;;;;;;30.07;21.43;;;6.40;99.90;;;;;;5032475;28;20222;-69
2022/01/19 11:47:35;;;;;;;33.50;20.40;;;6.30;99.90;;;;;;5031962;28;20594;-69
2022/01/19 11:50:07;;;;;;;29.90;20.83;;;6.40;99.90;;;;;;5032381;28;20200;-69
2022/01/19 11:52:38;;;;;;;51.50;21.97;;;6.40;99.90;;;;;;5032046;28;20182;-69
2022/01/19 11:55:22;;;;;;;34.03;21.37;;;6.30;99.90;;;;;;5032169;28;20259;-69
2022/01/19 11:57:50;;;;;;;28.03;20.43;;;6.30;99.90;;;;;;5032073;28;20181;-70
2022/01/19 12:00:23;;;;;;;28.10;20.10;;;6.30;99.90;;;;;;5033373;28;20189;-69
2022/01/19 12:02:53;;;;;;;45.50;30.70;;;6.40;99.90;;;;;;5034622;28;20208;-69
2022/01/19 12:05:38;;;;;;;36.67;27.00;;;6.50;99.90;;;;;;5034583;28;20217;-69
2022/01/19 12:08:31;;;;;;;69.77;44.30;;;6.50;99.90;;;;;;5034591;28;20166;-69
2022/01/19 12:11:20;;;;;;;49.83;34.87;;;6.50;99.90;;;;;;5034319;28;20180;-68
2022/01/19 12:16:20;;;;;;;31.50;21.97;;;6.50;99.90;;;;;;5034363;28;20174;-69
2022/01/19 12:18:49;;;;;;;32.20;21.27;;;6.50;99.90;;;;;;5034117;28;20177;-69
2022/01/19 12:21:20;;;;;;;39.97;28.27;;;6.50;99.90;;;;;;5034280;28;20166;-69
2022/01/19 12:23:46;;;;;;;34.23;23.63;;;6.50;99.90;;;;;;5033231;28;20174;-69
2022/01/19 12:26:13;;;;;;;39.77;29.00;;;6.70;99.90;;;;;;5033515;28;20332;-69
2022/01/19 12:28:47;;;;;;;37.63;25.90;;;6.80;99.90;;;;;;5034129;28;20241;-70
2022/01/19 12:31:33;;;;;;;35.67;25.10;;;6.80;99.90;;;;;;5034392;28;20177;-69
2022/01/19 12:34:02;;;;;;;36.07;23.70;;;6.90;99.90;;;;;;5033811;28;20228;-69
2022/01/19 12:36:52;;;;;;;39.97;26.70;;;6.80;99.90;;;;;;5033507;28;20641;-68
2022/01/19 12:39:26;;;;;;;31.10;22.00;;;6.90;99.90;;;;;;5032233;28;20600;-69
2022/01/19 12:42:13;;;;;;;30.23;20.80;;;6.90;99.90;;;;;;5033650;28;20689;-70
2022/01/19 12:44:42;;;;;;;32.30;22.03;;;6.80;99.90;;;;;;5033624;28;20208;-69
2022/01/19 12:47:28;;;;;;;36.33;22.83;;;6.80;99.90;;;;;;5033549;28;20305;-71
2022/01/19 12:49:57;;;;;;;32.60;22.03;;;6.70;99.90;;;;;;5033133;28;20589;-69
2022/01/19 12:52:28;;;;;;;36.87;22.10;;;6.80;99.90;;;;;;5034066;28;20173;-69
2022/01/19 12:54:56;;;;;;;40.67;24.07;;;6.50;99.90;;;;;;5033008;28;20170;-69
2022/01/19 12:57:22;;;;;;;34.10;23.17;;;6.60;99.90;;;;;;5032697;28;20177;-70
2022/01/19 12:59:51;;;;;;;35.43;21.83;;;6.60;99.90;;;;;;5033348;28;20181;-70
2022/01/19 13:02:20;;;;;;;37.97;24.03;;;6.70;99.90;;;;;;5033674;28;20200;-69
2022/01/19 13:04:47;;;;;;;32.33;21.50;;;6.80;99.90;;;;;;5031186;28;20216;-70
2022/01/19 13:07:18;;;;;;;35.13;22.63;;;6.70;99.90;;;;;;5032928;28;20201;-69
2022/01/19 13:12:48;;;;;;;33.53;22.43;;;6.90;99.90;;;;;;5033397;28;20181;-68
2022/01/19 13:15:14;;;;;;;35.23;23.17;;;6.70;99.90;;;;;;5033044;28;20629;-69
2022/01/19 13:17:46;;;;;;;35.00;22.00;;;6.90;99.90;;;;;;5032811;28;20189;-69
2022/01/19 13:20:17;;;;;;;36.20;23.17;;;6.90;99.90;;;;;;5033348;28;20743;-69
2022/01/19 13:23:04;;;;;;;36.83;23.70;;;6.90;99.90;;;;;;5032813;28;20232;-69
2022/01/19 13:25:32;;;;;;;42.53;24.37;;;6.90;99.90;;;;;;5032152;28;20235;-70
2022/01/19 13:28:01;;;;;;;39.57;24.40;;;6.70;99.90;;;;;;5033104;28;20174;-69
2022/01/19 13:30:29;;;;;;;41.00;23.40;;;6.80;99.90;;;;;;5032837;28;20166;-69
2022/01/19 13:32:56;;;;;;;37.70;22.87;;;6.90;99.90;;;;;;5033079;28;20281;-68
2022/01/19 13:35:25;;;;;;;35.90;23.20;;;6.80;99.90;;;;;;5031951;28;20178;-68
2022/01/19 13:37:58;;;;;;;84.30;48.87;;;6.90;99.90;;;;;;5033234;28;20178;-69
2022/01/19 13:40:30;;;;;;;38.70;24.17;;;6.80;99.90;;;;;;5032724;28;20216;-69
2022/01/19 13:43:03;;;;;;;37.93;23.27;;;6.80;99.90;;;;;;5033001;28;20264;-68
2022/01/19 13:50:44;;;;;;;39.37;24.10;;;6.60;99.90;;;;;;5032625;28;20556;-69
2022/01/19 13:53:10;;;;;;;42.87;23.77;;;6.60;99.90;;;;;;5032740;28;20278;-69
2022/01/19 13:55:36;;;;;;;40.43;25.00;;;6.70;99.90;;;;;;5032314;28;20188;-70
2022/01/19 13:58:16;;;;;;;38.77;24.13;;;6.70;99.90;;;;;;5032255;28;20173;-69
2022/01/19 14:00:56;;;;;;;39.80;25.30;;;6.70;99.90;;;;;;5032845;28;20186;-69
2022/01/19 14:03:23;;;;;;;40.40;23.53;;;6.80;99.90;;;;;;5032508;28;20173;-68
2022/01/19 14:05:54;;;;;;;41.33;25.33;;;6.80;99.90;;;;;;5032145;28;20205;-69
2022/01/19 14:08:32;;;;;;;39.50;24.73;;;6.80;99.90;;;;;;5032114;28;20260;-69
2022/01/19 14:10:58;;;;;;;40.80;23.97;;;6.80;99.90;;;;;;5032647;28;20181;-69
2022/01/19 14:13:30;;;;;;;47.27;25.63;;;6.80;99.90;;;;;;5032224;28;20264;-68
2022/01/19 14:16:17;;;;;;;44.30;25.80;;;6.70;99.90;;;;;;5032447;28;20181;-68
2022/01/19 14:19:07;;;;;;;64.77;41.97;;;6.80;99.90;;;;;;5032136;28;20198;-68
2022/01/19 14:21:33;;;;;;;48.50;28.33;;;6.80;99.90;;;;;;5032200;28;20173;-69
2022/01/19 14:23:59;;;;;;;44.47;28.70;;;6.80;99.90;;;;;;5031510;28;20625;-69
2022/01/19 14:26:26;;;;;;;49.17;31.30;;;6.70;99.90;;;;;;5031920;28;20229;-70
2022/01/19 14:29:14;;;;;;;49.00;30.77;;;6.80;99.90;;;;;;5032934;28;20170;-69